createdAt,value
2022-10-18T00:00:49.785Z,3.10
2022-10-18T00:03:16.351Z,4.07
2022-10-18T00:05:43.731Z,6.15
2022-10-18T00:08:13.978Z,3.75
2022-10-18T00:10:40.790Z,3.53
2022-10-18T00:13:07.641Z,2.88
2022-10-18T00:15:35.691Z,3.45
2022-10-18T00:18:02.346Z,5.30
2022-10-18T00:20:29.101Z,3.70
2022-10-18T00:22:56.046Z,7.13
2022-10-18T00:25:22.703Z,4.28
2022-10-18T00:27:49.524Z,7.18
2022-10-18T00:30:17.060Z,4.32
2022-10-18T00:32:44.963Z,9.40
2022-10-18T00:35:13.874Z,4.30
2022-10-18T00:37:40.648Z,2.50
2022-10-18T00:40:08.409Z,2.60
2022-10-18T00:42:37.056Z,2.45
2022-10-18T00:45:20.220Z,7.30
2022-10-18T00:47:53.714Z,2.67
2022-10-18T00:50:21.738Z,4.20
2022-10-18T00:52:51.817Z,3.38
2022-10-18T00:55:18.925Z,4.35
2022-10-18T00:57:46.750Z,3.13
2022-10-18T01:00:18.093Z,5.10
2022-10-18T01:02:46.709Z,2.28
2022-10-18T01:05:19.105Z,2.58
2022-10-18T01:08:02.204Z,5.30
2022-10-18T01:10:37.107Z,2.75
2022-10-18T01:13:20.952Z,3.83
2022-10-18T01:15:58.287Z,5.63
2022-10-18T01:18:30.420Z,2.80
2022-10-18T01:21:09.221Z,10.38
2022-10-18T01:24:17.826Z,4.95
2022-10-18T01:27:06.623Z,3.57
2022-10-18T01:29:53.387Z,4.88
2022-10-18T01:32:26.166Z,7.00
2022-10-18T01:34:59.305Z,4.78
2022-10-18T01:37:28.474Z,4.50
2022-10-18T01:39:57.298Z,6.30
2022-10-18T01:42:25.213Z,8.25
2022-10-18T01:44:54.206Z,6.78
2022-10-18T01:47:23.533Z,3.90
2022-10-18T01:49:50.192Z,5.13
2022-10-18T01:52:17.193Z,4.87
2022-10-18T01:54:46.780Z,5.43
2022-10-18T01:57:22.503Z,5.03
2022-10-18T01:59:56.418Z,3.88
2022-10-18T02:02:36.558Z,4.43
2022-10-18T02:05:11.864Z,4.73
2022-10-18T02:07:51.923Z,2.95
2022-10-18T02:10:34.603Z,4.15
2022-10-18T02:13:02.313Z,3.38
2022-10-18T02:15:33.029Z,3.55
2022-10-18T02:18:03.868Z,4.13
2022-10-18T02:20:31.577Z,5.20
2022-10-18T02:23:00.587Z,3.67
2022-10-18T02:25:31.047Z,5.07
2022-10-18T02:27:58.617Z,3.70
2022-10-18T02:30:37.185Z,5.03
2022-10-18T02:33:13.848Z,4.03
2022-10-18T02:35:46.977Z,5.30
2022-10-18T02:38:16.962Z,6.15
2022-10-18T02:40:43.520Z,4.75
2022-10-18T02:43:10.115Z,5.40
2022-10-18T02:45:37.992Z,6.38
2022-10-18T02:48:09.856Z,5.25
2022-10-18T02:50:36.739Z,5.65
2022-10-18T02:53:03.569Z,7.28
2022-10-18T02:55:30.140Z,4.87
2022-10-18T02:57:56.995Z,7.28
2022-10-18T03:00:23.605Z,5.90
2022-10-18T03:02:50.164Z,5.95
2022-10-18T03:05:18.417Z,4.72
2022-10-18T03:07:48.629Z,5.40
2022-10-18T03:10:15.499Z,6.78
2022-10-18T03:12:42.251Z,3.70
2022-10-18T03:15:09.973Z,5.95
2022-10-18T03:17:36.668Z,4.05
2022-10-18T03:20:04.688Z,4.07
2022-10-18T03:22:33.211Z,5.32
2022-10-18T03:24:59.785Z,4.57
2022-10-18T03:27:26.400Z,6.03
2022-10-18T03:29:52.961Z,4.82
2022-10-18T03:32:19.491Z,5.00
2022-10-18T03:34:46.570Z,4.15
2022-10-18T03:37:13.595Z,9.27
2022-10-18T03:39:42.276Z,3.60
2022-10-18T03:42:08.836Z,5.05
2022-10-18T03:44:37.392Z,5.97
2022-10-18T03:47:06.648Z,5.97
2022-10-18T03:52:00.611Z,7.05
2022-10-18T03:54:27.154Z,4.60
2022-10-18T03:56:55.523Z,5.23
2022-10-18T03:59:22.778Z,5.72
2022-10-18T04:01:49.451Z,5.30
2022-10-18T04:04:17.652Z,6.05
2022-10-18T04:06:45.204Z,5.03
2022-10-18T04:09:12.707Z,6.83
2022-10-18T04:11:39.309Z,4.20
2022-10-18T04:14:07.390Z,5.38
2022-10-18T04:16:34.066Z,6.85
2022-10-18T04:19:01.818Z,7.05
2022-10-18T04:21:28.410Z,6.93
2022-10-18T04:23:55.257Z,6.63
2022-10-18T04:26:21.788Z,10.02
2022-10-18T04:28:48.707Z,6.45
2022-10-18T04:31:17.488Z,8.40
2022-10-18T04:33:44.576Z,8.03
2022-10-18T04:36:12.207Z,7.15
2022-10-18T04:38:38.829Z,9.82
2022-10-18T04:41:05.656Z,5.97
2022-10-18T04:43:32.463Z,7.22
2022-10-18T04:45:59.177Z,6.23
2022-10-18T04:48:27.141Z,6.38
2022-10-18T04:50:55.567Z,6.47
2022-10-18T04:53:23.342Z,8.13
2022-10-18T04:55:50.619Z,6.57
2022-10-18T04:58:17.594Z,6.33
2022-10-18T05:00:44.647Z,6.25
2022-10-18T05:03:13.817Z,7.13
2022-10-18T05:06:00.932Z,7.43
2022-10-18T05:08:29.804Z,7.65
2022-10-18T05:10:56.562Z,8.27
2022-10-18T05:13:23.763Z,9.23
2022-10-18T05:15:51.456Z,11.38
2022-10-18T05:18:27.249Z,9.38
2022-10-18T05:20:55.400Z,11.32
2022-10-18T05:23:22.743Z,12.57
2022-10-18T05:25:50.448Z,10.32
2022-10-18T05:28:45.468Z,11.70
2022-10-18T05:31:05.388Z,12.98
2022-10-18T05:33:32.819Z,12.32
2022-10-18T05:36:01.146Z,12.93
2022-10-18T05:38:28.733Z,13.38
2022-10-18T05:40:56.843Z,13.70
2022-10-18T05:43:25.597Z,17.75
2022-10-18T05:45:52.380Z,18.67
2022-10-18T05:48:19.200Z,15.47
2022-10-18T05:51:13.845Z,16.55
2022-10-18T05:53:40.757Z,15.35
2022-10-18T05:56:07.895Z,13.88
2022-10-18T05:58:35.181Z,15.48
2022-10-18T06:01:03.862Z,15.80
2022-10-18T06:03:31.081Z,16.88
2022-10-18T06:06:01.616Z,17.67
2022-10-18T06:08:29.713Z,14.95
2022-10-18T06:10:59.500Z,14.23
2022-10-18T06:13:26.533Z,18.37
2022-10-18T06:15:56.227Z,18.05
2022-10-18T06:18:22.800Z,18.45
2022-10-18T06:20:49.477Z,18.77
2022-10-18T06:23:16.169Z,20.88
2022-10-18T06:25:45.186Z,20.23
2022-10-18T06:28:12.440Z,19.58
2022-10-18T06:30:39.073Z,21.88
2022-10-18T06:33:05.693Z,22.58
2022-10-18T06:35:32.373Z,21.33
2022-10-18T06:37:58.996Z,27.00
2022-10-18T06:40:26.848Z,19.65
2022-10-18T06:43:05.882Z,25.63
2022-10-18T06:45:37.335Z,25.48
2022-10-18T06:48:04.526Z,27.88
2022-10-18T06:50:31.598Z,31.60
2022-10-18T06:52:58.510Z,30.73
2022-10-18T06:55:25.061Z,30.90
2022-10-18T06:57:54.681Z,29.13
2022-10-18T07:00:21.316Z,32.03
2022-10-18T07:02:47.844Z,30.93
2022-10-18T07:05:14.782Z,31.02
2022-10-18T07:07:41.867Z,31.67
2022-10-18T07:10:12.953Z,31.63
2022-10-18T07:12:42.392Z,32.35
2022-10-18T07:15:10.981Z,28.80
2022-10-18T07:17:37.755Z,31.23
2022-10-18T07:20:07.611Z,29.20
2022-10-18T07:22:34.251Z,27.88
2022-10-18T07:25:00.774Z,29.02
2022-10-18T07:27:27.452Z,32.67
2022-10-18T07:29:54.011Z,29.20
2022-10-18T07:32:22.414Z,32.10
2022-10-18T07:34:49.508Z,26.48
2022-10-18T07:37:16.130Z,29.42
2022-10-18T07:39:42.713Z,25.97
2022-10-18T07:42:09.633Z,24.58
2022-10-18T07:45:03.998Z,27.75
2022-10-18T07:50:46.481Z,26.42
2022-10-18T07:53:13.171Z,22.57
2022-10-18T07:55:39.788Z,27.95
2022-10-18T07:58:06.740Z,26.88
2022-10-18T08:00:33.457Z,26.75
2022-10-18T08:03:02.497Z,33.67
2022-10-18T08:05:29.573Z,37.90
2022-10-18T08:07:56.311Z,40.40
2022-10-18T08:10:23.695Z,40.30
2022-10-18T08:12:53.191Z,43.58
2022-10-18T08:15:19.854Z,36.78
2022-10-18T08:17:46.481Z,36.13
2022-10-18T08:20:29.858Z,42.92
2022-10-18T08:23:00.186Z,43.58
2022-10-18T08:25:27.948Z,45.85
2022-10-18T08:27:54.619Z,46.85
2022-10-18T08:30:21.210Z,46.70
2022-10-18T08:32:48.152Z,51.25
2022-10-18T08:35:16.371Z,49.95
2022-10-18T08:37:43.412Z,42.63
2022-10-18T08:40:12.889Z,39.85
2022-10-18T08:43:01.704Z,40.43
2022-10-18T08:45:41.281Z,40.95
2022-10-18T08:48:19.306Z,37.95
2022-10-18T08:50:49.686Z,38.80
2022-10-18T08:53:24.454Z,42.08
2022-10-18T08:55:54.892Z,42.13
2022-10-18T08:58:24.132Z,40.88
2022-10-18T09:01:01.537Z,43.95
2022-10-18T09:03:48.502Z,42.00
2022-10-18T09:06:23.600Z,42.45
2022-10-18T09:09:07.052Z,47.17
2022-10-18T09:11:47.937Z,36.80
2022-10-18T09:14:28.310Z,42.58
2022-10-18T09:17:06.380Z,40.78
2022-10-18T09:19:50.201Z,39.78
2022-10-18T09:22:19.150Z,47.30
2022-10-18T09:24:52.593Z,42.03
2022-10-18T09:27:22.312Z,39.30
2022-10-18T09:29:59.129Z,44.60
2022-10-18T09:32:46.683Z,39.78
2022-10-18T09:35:16.656Z,36.17
2022-10-18T09:37:48.474Z,41.80
2022-10-18T09:40:20.590Z,38.10
2022-10-18T09:42:57.131Z,36.28
2022-10-18T09:45:28.888Z,36.38
2022-10-18T09:48:04.818Z,34.33
2022-10-18T09:50:37.441Z,36.92
2022-10-18T09:53:16.428Z,34.00
2022-10-18T09:55:56.113Z,34.45
2022-10-18T09:58:24.182Z,38.53
2022-10-18T10:00:53.300Z,39.53
2022-10-18T10:03:20.094Z,39.78
2022-10-18T10:05:47.755Z,42.13
2022-10-18T10:08:15.968Z,40.15
2022-10-18T10:10:46.966Z,35.97
2022-10-18T10:13:16.436Z,33.03
2022-10-18T10:15:46.800Z,33.63
2022-10-18T10:18:21.030Z,32.70
2022-10-18T10:20:53.156Z,35.45
2022-10-18T10:23:25.774Z,32.22
2022-10-18T10:25:54.909Z,35.00
2022-10-18T10:28:26.456Z,33.78
2022-10-18T10:30:53.651Z,30.77
2022-10-18T10:33:33.219Z,32.75
2022-10-18T10:36:01.769Z,31.83
2022-10-18T10:38:31.375Z,31.80
2022-10-18T10:40:59.189Z,33.60
2022-10-18T10:43:43.808Z,29.98
2022-10-18T10:46:13.098Z,29.92
2022-10-18T10:48:49.736Z,38.08
2022-10-18T10:51:27.336Z,37.80
2022-10-18T10:54:02.120Z,37.95
2022-10-18T10:56:34.128Z,37.17
2022-10-18T10:59:09.800Z,36.72
2022-10-18T11:01:36.784Z,42.22
2022-10-18T11:04:24.137Z,52.97
2022-10-18T11:06:59.121Z,61.70
2022-10-18T11:09:45.545Z,60.03
2022-10-18T11:12:25.249Z,57.63
2022-10-18T11:14:59.313Z,56.70
2022-10-18T11:17:32.503Z,61.43
2022-10-18T11:20:18.494Z,61.75
2022-10-18T11:22:57.641Z,57.33
2022-10-18T11:25:40.341Z,62.78
2022-10-18T11:28:15.036Z,61.90
2022-10-18T11:30:55.756Z,66.23
2022-10-18T11:33:56.435Z,60.90
2022-10-18T11:36:24.845Z,62.05
2022-10-18T11:38:57.306Z,64.93
2022-10-18T11:41:51.230Z,57.20
2022-10-18T11:44:27.130Z,56.67
2022-10-18T11:47:05.131Z,58.30
2022-10-18T11:49:49.748Z,58.40
2022-10-18T11:52:27.011Z,59.00
2022-10-18T11:55:18.589Z,58.60
2022-10-18T11:57:54.960Z,62.80
2022-10-18T12:00:32.815Z,59.67
2022-10-18T12:03:14.739Z,51.58
2022-10-18T12:05:44.536Z,55.83
2022-10-18T12:08:15.189Z,49.20
2022-10-18T12:11:00.315Z,51.33
2022-10-18T12:13:38.661Z,46.65
2022-10-18T12:16:08.889Z,47.30
2022-10-18T12:18:37.646Z,45.90
2022-10-18T12:21:06.320Z,44.45
2022-10-18T12:23:42.207Z,42.47
2022-10-18T12:26:11.202Z,39.75
2022-10-18T12:28:49.668Z,38.53
2022-10-18T12:31:24.994Z,35.13
2022-10-18T12:33:55.456Z,35.10
2022-10-18T12:36:47.162Z,35.27
2022-10-18T12:39:32.271Z,34.50
2022-10-18T12:42:19.018Z,33.08
2022-10-18T12:44:49.025Z,30.27
2022-10-18T12:47:24.624Z,28.88
2022-10-18T12:49:59.157Z,30.23
2022-10-18T12:52:27.454Z,28.95
2022-10-18T12:55:04.185Z,21.85
2022-10-18T12:58:02.939Z,25.60
2022-10-18T13:00:53.905Z,35.53
2022-10-18T13:03:53.283Z,31.43
2022-10-18T13:06:20.688Z,22.52
2022-10-18T13:08:47.493Z,33.28
2022-10-18T13:11:32.934Z,24.65
2022-10-18T13:14:29.447Z,26.30
2022-10-18T13:17:11.436Z,21.47
2022-10-18T13:19:58.074Z,18.60
2022-10-18T13:22:51.263Z,20.73
2022-10-18T13:25:22.474Z,16.13
2022-10-18T13:27:56.367Z,18.75
2022-10-18T13:30:45.411Z,19.67
2022-10-18T13:33:33.132Z,14.30
2022-10-18T13:36:01.655Z,13.63
2022-10-18T13:38:59.264Z,14.60
2022-10-18T13:41:30.152Z,19.52
2022-10-18T13:44:24.704Z,16.97
2022-10-18T13:47:34.150Z,11.82
2022-10-18T13:50:34.443Z,9.65
2022-10-18T13:53:29.296Z,16.65
2022-10-18T13:56:30.376Z,10.98
2022-10-18T13:59:19.781Z,10.27
2022-10-18T14:02:04.306Z,11.32
2022-10-18T14:04:46.700Z,9.65
2022-10-18T14:07:18.497Z,12.48
2022-10-18T14:09:52.436Z,10.40
2022-10-18T14:12:29.884Z,10.67
2022-10-18T14:15:03.623Z,9.70
2022-10-18T14:20:20.501Z,7.78
2022-10-18T14:22:53.849Z,14.02
2022-10-18T14:25:26.515Z,11.40
2022-10-18T14:28:06.861Z,9.10
2022-10-18T14:30:35.332Z,10.25
2022-10-18T14:33:02.974Z,12.05
2022-10-18T14:35:34.536Z,9.57
2022-10-18T14:38:03.141Z,11.83
2022-10-18T14:40:34.217Z,11.23
2022-10-18T14:43:10.707Z,8.75
2022-10-18T14:45:37.395Z,13.35
2022-10-18T14:48:14.071Z,12.75
2022-10-18T14:50:41.810Z,11.33
2022-10-18T14:53:17.316Z,6.55
2022-10-18T14:55:52.424Z,9.18
2022-10-18T14:58:21.689Z,9.18
2022-10-18T15:00:48.727Z,13.02
2022-10-18T15:03:17.667Z,6.93
2022-10-18T15:05:55.789Z,9.18
2022-10-18T15:08:26.844Z,6.20
2022-10-18T15:10:53.645Z,8.73
2022-10-18T15:13:21.597Z,13.93
2022-10-18T15:15:48.713Z,8.37
2022-10-18T15:18:21.525Z,8.95
2022-10-18T15:21:07.477Z,9.80
2022-10-18T15:23:36.447Z,8.68
2022-10-18T15:26:06.931Z,9.68
2022-10-18T15:28:39.321Z,8.60
2022-10-18T15:31:06.332Z,9.32
2022-10-18T15:33:33.295Z,12.18
2022-10-18T15:36:08.546Z,6.70
2022-10-18T15:38:36.986Z,7.63
2022-10-18T15:41:23.939Z,9.50
2022-10-18T15:43:50.592Z,5.72
2022-10-18T15:46:31.544Z,9.85
2022-10-18T15:49:27.831Z,8.45
2022-10-18T15:52:24.333Z,10.77
2022-10-18T15:54:52.291Z,8.10
2022-10-18T15:57:19.079Z,14.07
2022-10-18T15:59:52.569Z,4.78
2022-10-18T16:02:20.044Z,7.65
2022-10-18T16:04:47.045Z,8.07
2022-10-18T16:07:14.276Z,12.30
2022-10-18T16:09:41.244Z,5.70
2022-10-18T16:12:09.836Z,6.97
2022-10-18T16:14:37.009Z,10.43
2022-10-18T16:17:06.754Z,7.88
2022-10-18T16:19:34.026Z,6.63
2022-10-18T16:22:05.954Z,10.88
2022-10-18T16:24:33.614Z,8.25
2022-10-18T16:27:00.208Z,8.35
2022-10-18T16:29:28.448Z,7.80
2022-10-18T16:31:55.054Z,9.70
2022-10-18T16:34:21.777Z,6.38
2022-10-18T16:36:48.564Z,7.32
2022-10-18T16:39:17.609Z,9.18
2022-10-18T16:41:44.811Z,6.88
2022-10-18T16:44:11.933Z,5.03
2022-10-18T16:46:40.412Z,15.23
2022-10-18T16:49:07.471Z,8.38
2022-10-18T16:51:34.098Z,9.10
2022-10-18T16:54:00.991Z,8.10
2022-10-18T16:56:32.121Z,8.63
2022-10-18T16:59:03.709Z,5.90
2022-10-18T17:01:31.517Z,6.50
2022-10-18T17:04:00.307Z,7.38
2022-10-18T17:06:29.269Z,4.03
2022-10-18T17:08:56.958Z,9.43
2022-10-18T17:11:28.104Z,4.30
2022-10-18T17:13:55.566Z,15.80
2022-10-18T17:16:25.826Z,8.77
2022-10-18T17:18:53.245Z,12.30
2022-10-18T17:21:22.469Z,10.80
2022-10-18T17:23:49.657Z,9.52
2022-10-18T17:26:30.137Z,8.68
2022-10-18T17:28:58.874Z,4.93
2022-10-18T17:31:26.006Z,10.95
2022-10-18T17:33:53.622Z,10.93
2022-10-18T17:36:22.459Z,12.85
2022-10-18T17:38:51.348Z,7.38
2022-10-18T17:41:25.841Z,9.73
2022-10-18T17:43:52.489Z,10.00
2022-10-18T17:46:19.342Z,10.83
2022-10-18T17:48:48.698Z,8.27
2022-10-18T17:51:19.297Z,10.10
2022-10-18T17:53:49.928Z,7.70
2022-10-18T17:56:17.144Z,7.53
2022-10-18T17:58:43.902Z,8.27
2022-10-18T18:01:13.398Z,11.52
2022-10-18T18:03:40.794Z,10.40
2022-10-18T18:06:16.569Z,7.13
2022-10-18T18:08:43.231Z,8.88
2022-10-18T18:11:12.012Z,5.20
2022-10-18T18:13:41.135Z,8.20
2022-10-18T18:16:15.361Z,7.07
2022-10-18T18:18:44.428Z,7.03
2022-10-18T18:21:11.661Z,11.32
2022-10-18T18:23:38.461Z,6.47
2022-10-18T18:26:05.487Z,12.70
2022-10-18T18:28:34.440Z,11.82
2022-10-18T18:31:06.037Z,15.27
2022-10-18T18:33:32.677Z,10.13
2022-10-18T18:35:59.669Z,16.73
2022-10-18T18:38:27.328Z,9.70
2022-10-18T18:41:03.633Z,10.40
2022-10-18T18:43:30.374Z,12.77
2022-10-18T18:45:59.620Z,10.77
2022-10-18T18:48:26.175Z,10.67
2022-10-18T18:50:52.750Z,14.60
2022-10-18T18:53:19.524Z,8.65
2022-10-18T18:55:52.217Z,11.38
2022-10-18T18:58:18.905Z,13.10
2022-10-18T19:00:46.383Z,9.57
2022-10-18T19:03:17.880Z,9.45
2022-10-18T19:05:45.216Z,5.63
2022-10-18T19:08:11.901Z,10.10
2022-10-18T19:10:38.600Z,7.75
2022-10-18T19:13:05.196Z,10.20
2022-10-18T19:15:31.814Z,8.43
2022-10-18T19:18:01.091Z,6.80
2022-10-18T19:20:29.037Z,5.38
2022-10-18T19:22:58.071Z,12.65
2022-10-18T19:25:26.974Z,17.23
2022-10-18T19:27:53.809Z,13.75
2022-10-18T19:30:20.887Z,9.27
2022-10-18T19:32:47.516Z,14.50
2022-10-18T19:35:14.294Z,17.15
2022-10-18T19:37:42.521Z,12.47
2022-10-18T19:40:10.213Z,12.07
2022-10-18T19:42:37.448Z,9.18
2022-10-18T19:45:05.967Z,4.95
2022-10-18T19:47:32.728Z,7.10
2022-10-18T19:49:59.913Z,7.20
2022-10-18T19:52:26.793Z,5.05
2022-10-18T19:54:55.078Z,10.15
2022-10-18T19:57:21.709Z,7.78
2022-10-18T19:59:48.290Z,16.45
2022-10-18T20:02:15.147Z,5.20
2022-10-18T20:04:42.711Z,14.77
2022-10-18T20:07:09.295Z,7.78
2022-10-18T20:09:35.868Z,11.25
2022-10-18T20:12:06.154Z,13.52
2022-10-18T20:14:32.733Z,16.30
2022-10-18T20:17:00.116Z,18.80
2022-10-18T20:19:27.205Z,14.48
2022-10-18T20:21:55.845Z,12.02
2022-10-18T20:24:22.793Z,12.55
2022-10-18T20:26:49.847Z,5.93
2022-10-18T20:29:18.244Z,12.82
2022-10-18T20:31:44.838Z,13.18
2022-10-18T20:34:12.931Z,9.00
2022-10-18T20:36:40.303Z,11.48
2022-10-18T20:39:07.604Z,10.20
2022-10-18T20:41:36.430Z,7.93
2022-10-18T20:44:06.665Z,8.23
2022-10-18T20:46:36.431Z,4.72
2022-10-18T20:49:04.510Z,9.68
2022-10-18T20:51:31.274Z,8.57
2022-10-18T20:53:59.257Z,9.90
2022-10-18T20:56:27.314Z,5.05
2022-10-18T20:58:56.538Z,9.25
2022-10-18T21:01:25.327Z,6.53
2022-10-18T21:03:55.141Z,9.27
2022-10-18T21:06:24.011Z,8.95
2022-10-18T21:08:53.170Z,9.40
2022-10-18T21:11:19.859Z,9.40
2022-10-18T21:13:51.602Z,9.98
2022-10-18T21:16:18.426Z,6.50
2022-10-18T21:18:45.078Z,7.95
2022-10-18T21:21:15.535Z,9.55
2022-10-18T21:23:42.706Z,6.28
2022-10-18T21:26:14.172Z,9.10
2022-10-18T21:28:41.095Z,8.20
2022-10-18T21:31:10.244Z,9.32
2022-10-18T21:33:37.347Z,11.52
2022-10-18T21:36:04.595Z,13.70
2022-10-18T21:38:32.655Z,7.15
2022-10-18T21:40:59.239Z,14.50
2022-10-18T21:43:26.064Z,10.07
2022-10-18T21:45:57.566Z,16.40
2022-10-18T21:48:24.337Z,9.10
2022-10-18T21:50:51.182Z,17.52
2022-10-18T21:53:17.750Z,10.33
2022-10-18T21:55:46.475Z,16.67
2022-10-18T21:58:15.757Z,9.40
2022-10-18T22:00:42.420Z,7.70
2022-10-18T22:03:10.165Z,10.80
2022-10-18T22:05:36.968Z,6.37
2022-10-18T22:08:04.380Z,9.05
2022-10-18T22:10:31.744Z,4.00
2022-10-18T22:13:00.133Z,9.30
2022-10-18T22:15:27.029Z,10.38
2022-10-18T22:17:53.969Z,12.07
2022-10-18T22:20:20.555Z,6.90
2022-10-18T22:22:47.103Z,11.65
2022-10-18T22:25:13.714Z,5.68
2022-10-18T22:27:40.295Z,10.45
2022-10-18T22:30:09.623Z,9.60
2022-10-18T22:32:36.474Z,6.90
2022-10-18T22:35:03.209Z,8.95
2022-10-18T22:37:29.799Z,7.68
2022-10-18T22:39:57.014Z,7.43
2022-10-18T22:42:23.914Z,7.47
2022-10-18T22:44:50.567Z,7.40
2022-10-18T22:47:19.214Z,9.98
2022-10-18T22:49:46.136Z,6.00
2022-10-18T22:52:12.911Z,5.70
2022-10-18T22:54:39.764Z,4.20
2022-10-18T22:57:06.839Z,12.60
2022-10-18T22:59:33.528Z,5.45
2022-10-18T23:02:01.098Z,8.82
2022-10-18T23:04:29.122Z,4.30
2022-10-18T23:06:55.687Z,12.37
2022-10-18T23:09:22.653Z,6.65
2022-10-18T23:11:49.485Z,3.88
2022-10-18T23:14:17.100Z,9.50
2022-10-18T23:16:44.086Z,7.97
2022-10-18T23:19:14.792Z,6.87
2022-10-18T23:21:43.059Z,12.02
2022-10-18T23:24:09.667Z,9.98
2022-10-18T23:26:36.594Z,8.93
2022-10-18T23:29:03.498Z,11.32
2022-10-18T23:31:32.367Z,9.40
2022-10-18T23:34:01.140Z,8.75
2022-10-18T23:36:28.255Z,9.73
2022-10-18T23:38:56.272Z,15.40
2022-10-18T23:41:23.067Z,8.10
2022-10-18T23:43:50.132Z,11.17
2022-10-18T23:46:17.796Z,11.48
2022-10-18T23:48:45.500Z,7.72
2022-10-18T23:51:12.451Z,9.15
2022-10-18T23:53:39.253Z,8.35
2022-10-18T23:56:10.466Z,9.50
2022-10-18T23:58:37.715Z,7.78
